createdAt,value
2018-04-07T00:00:02.538Z,6.19
2018-04-07T00:00:06.865Z,6.19
2018-04-07T00:00:10.961Z,6.18
2018-04-07T00:00:14.955Z,6.18
2018-04-07T00:00:18.839Z,6.18
2018-04-07T00:00:23.052Z,6.19
2018-04-07T00:00:27.048Z,6.18
2018-04-07T00:00:30.828Z,6.19
2018-04-07T00:00:34.938Z,6.18
2018-04-07T00:00:39.262Z,6.18
2018-04-07T00:00:43.481Z,6.18
2018-04-07T00:00:47.593Z,6.17
2018-04-07T00:00:51.802Z,6.17
2018-04-07T00:00:55.902Z,6.17
2018-04-07T00:01:00.110Z,6.15
2018-04-07T00:01:04.460Z,6.16
2018-04-07T00:01:08.564Z,6.16
2018-04-07T00:01:12.771Z,6.16
2018-04-07T00:01:16.878Z,6.15
2018-04-07T00:01:20.870Z,6.16
2018-04-07T00:01:25.082Z,6.15
2018-04-07T00:01:29.300Z,6.15
2018-04-07T00:01:33.293Z,6.15
2018-04-07T00:01:37.401Z,6.15
2018-04-07T00:01:41.510Z,6.14
2018-04-07T00:01:45.729Z,6.14
2018-04-07T00:01:49.877Z,6.14
2018-04-07T00:01:53.873Z,6.14
2018-04-07T00:01:57.983Z,6.14
2018-04-07T00:02:02.285Z,6.13
2018-04-07T00:02:06.285Z,6.13
2018-04-07T00:02:10.277Z,6.13
2018-04-07T00:02:14.489Z,6.12
2018-04-07T00:02:18.707Z,6.13
2018-04-07T00:02:22.613Z,6.13
2018-04-07T00:02:26.500Z,6.12
2018-04-07T00:02:30.496Z,6.12
2018-04-07T00:02:34.492Z,6.12
2018-04-07T00:02:38.600Z,6.12
2018-04-07T00:02:42.701Z,6.11
2018-04-07T00:02:46.910Z,6.12
2018-04-07T00:02:50.917Z,6.12
2018-04-07T00:02:54.912Z,6.12
2018-04-07T00:02:59.014Z,6.11
2018-04-07T00:03:03.258Z,6.1
2018-04-07T00:03:07.357Z,6.11
2018-04-07T00:03:11.242Z,6.11
2018-04-07T00:03:15.349Z,6.1
2018-04-07T00:03:19.447Z,6.09
2018-04-07T00:03:23.548Z,6.09
2018-04-07T00:03:27.647Z,6.09
2018-04-07T00:03:31.537Z,6.09
2018-04-07T00:03:35.855Z,6.09
2018-04-07T00:03:40.069Z,6.09
2018-04-07T00:03:44.180Z,6.08
2018-04-07T00:03:48.388Z,6.08
2018-04-07T00:03:52.279Z,6.08
2018-04-07T00:03:56.595Z,6.07
2018-04-07T00:04:00.711Z,6.07
2018-04-07T00:04:05.033Z,6.06
2018-04-07T00:04:09.137Z,6.06
2018-04-07T00:04:12.970Z,6.06
2018-04-07T00:04:17.074Z,6.05
2018-04-07T00:04:21.177Z,6.05
2018-04-07T00:04:25.384Z,6.05
2018-04-07T00:04:29.504Z,6.04
2018-04-07T00:04:33.505Z,6.04
2018-04-07T00:04:37.606Z,6.06
2018-04-07T00:04:41.721Z,6.04
2018-04-07T00:04:45.717Z,6.04
2018-04-07T00:04:49.922Z,6.04
2018-04-07T00:04:54.025Z,6.04
2018-04-07T00:04:58.024Z,6.03
2018-04-07T00:05:02.072Z,6.03
2018-04-07T00:05:06.173Z,6.02
2018-04-07T00:05:10.380Z,6.02
2018-04-07T00:05:14.386Z,6.02
2018-04-07T00:05:18.485Z,6.02
2018-04-07T00:05:22.800Z,6.01
2018-04-07T00:05:27.002Z,6.01
2018-04-07T00:05:31.102Z,6
2018-04-07T00:05:34.984Z,6
2018-04-07T00:05:39.085Z,6
2018-04-07T00:05:43.078Z,6
2018-04-07T00:05:47.077Z,6
2018-04-07T00:05:51.178Z,6
2018-04-07T00:05:55.286Z,5.99
2018-04-07T00:05:59.385Z,5.99
2018-04-07T00:06:03.748Z,5.99
2018-04-07T00:06:07.958Z,5.99
2018-04-07T00:06:12.165Z,5.97
2018-04-07T00:06:16.155Z,5.98
2018-04-07T00:06:20.147Z,5.98
2018-04-07T00:06:24.249Z,5.98
2018-04-07T00:06:28.346Z,5.96
2018-04-07T00:06:32.229Z,5.97
2018-04-07T00:06:36.335Z,5.96
2018-04-07T00:06:40.434Z,5.96
2018-04-07T00:06:44.324Z,5.95
2018-04-07T00:06:48.541Z,5.96
2018-04-07T00:06:52.759Z,5.95
2018-04-07T00:06:56.854Z,5.95
2018-04-07T00:07:00.964Z,5.95
2018-04-07T00:07:05.185Z,5.95
2018-04-07T00:07:09.071Z,5.95
2018-04-07T00:07:13.279Z,5.94
2018-04-07T00:07:17.484Z,5.94
2018-04-07T00:07:21.581Z,5.94
2018-04-07T00:07:25.802Z,5.93
2018-04-07T00:07:29.901Z,5.92
2018-04-07T00:07:34.156Z,5.94
2018-04-07T00:07:38.385Z,5.93
2018-04-07T00:07:42.380Z,5.93
2018-04-07T00:07:46.601Z,5.92
2018-04-07T00:07:50.596Z,5.93
2018-04-07T00:07:54.808Z,5.93
2018-04-07T00:07:58.799Z,5.92
2018-04-07T00:08:03.006Z,5.91
2018-04-07T00:08:07.219Z,5.92
2018-04-07T00:08:11.535Z,5.91
2018-04-07T00:08:15.747Z,5.91
2018-04-07T00:08:19.745Z,5.91
2018-04-07T00:08:23.954Z,5.9
2018-04-07T00:08:28.052Z,5.9
2018-04-07T00:08:32.149Z,5.9
2018-04-07T00:08:36.157Z,5.89
2018-04-07T00:08:40.474Z,5.89
2018-04-07T00:08:44.583Z,5.89
2018-04-07T00:08:48.472Z,5.89
2018-04-07T00:08:52.463Z,5.89
2018-04-07T00:08:56.460Z,5.88
2018-04-07T00:09:00.564Z,5.88
2018-04-07T00:09:04.666Z,5.89
2018-04-07T00:09:08.565Z,5.88
2018-04-07T00:09:12.778Z,5.88
2018-04-07T00:09:16.920Z,5.87
2018-04-07T00:09:20.912Z,5.87
2018-04-07T00:09:24.923Z,5.86
2018-04-07T00:09:28.808Z,5.86
2018-04-07T00:09:33.130Z,5.85
2018-04-07T00:09:37.244Z,5.86
2018-04-07T00:09:41.349Z,5.85
2018-04-07T00:09:45.607Z,5.85
2018-04-07T00:09:50.082Z,5.85
2018-04-07T00:09:54.371Z,5.85
2018-04-07T00:09:58.359Z,5.85
2018-04-07T00:10:02.703Z,5.84
2018-04-07T00:10:06.741Z,5.84
2018-04-07T00:10:10.844Z,5.83
2018-04-07T00:10:14.733Z,5.83
2018-04-07T00:10:18.840Z,5.84
2018-04-07T00:10:22.950Z,5.83
2018-04-07T00:10:27.061Z,5.82
2018-04-07T00:10:31.161Z,5.82
2018-04-07T00:10:35.152Z,5.82
2018-04-07T00:10:39.143Z,5.82
2018-04-07T00:10:43.360Z,5.81
2018-04-07T00:10:47.349Z,5.81
2018-04-07T00:10:51.286Z,5.81
2018-04-07T00:10:55.178Z,5.81
2018-04-07T00:10:59.173Z,5.8
2018-04-07T00:11:03.414Z,5.8
2018-04-07T00:11:07.426Z,5.8
2018-04-07T00:11:11.321Z,5.8
2018-04-07T00:11:15.205Z,5.78
2018-04-07T00:11:19.203Z,5.79
2018-04-07T00:11:23.307Z,5.77
2018-04-07T00:11:27.525Z,5.78
2018-04-07T00:11:31.534Z,5.77
2018-04-07T00:11:35.852Z,5.78
2018-04-07T00:11:40.073Z,5.77
2018-04-07T00:11:44.181Z,5.77
2018-04-07T00:11:48.178Z,5.78
2018-04-07T00:11:52.397Z,5.78
2018-04-07T00:11:56.626Z,5.77
2018-04-07T00:12:00.738Z,5.77
2018-04-07T00:12:04.834Z,5.76
2018-04-07T00:12:08.943Z,5.77
2018-04-07T00:12:13.152Z,5.76
2018-04-07T00:12:17.043Z,5.76
2018-04-07T00:12:21.263Z,5.75
2018-04-07T00:12:25.365Z,5.76
2018-04-07T00:12:29.355Z,5.76
2018-04-07T00:12:33.564Z,5.75
2018-04-07T00:12:37.773Z,5.75
2018-04-07T00:12:42.090Z,5.75
2018-04-07T00:12:46.197Z,5.74
2018-04-07T00:12:50.090Z,5.75
2018-04-07T00:12:54.422Z,5.75
2018-04-07T00:12:58.524Z,5.74
2018-04-07T00:13:02.626Z,5.74
2018-04-07T00:13:06.841Z,5.75
2018-04-07T00:13:10.951Z,5.74
2018-04-07T00:13:15.059Z,5.74
2018-04-07T00:13:19.166Z,5.74
2018-04-07T00:13:23.371Z,5.74
2018-04-07T00:13:27.367Z,5.73
2018-04-07T00:13:31.580Z,5.73
2018-04-07T00:13:35.790Z,5.74
2018-04-07T00:13:39.899Z,5.74
2018-04-07T00:13:44.113Z,5.74
2018-04-07T00:13:48.470Z,5.74
2018-04-07T00:13:52.464Z,5.73
2018-04-07T00:13:56.566Z,5.73
2018-04-07T00:14:00.567Z,5.73
2018-04-07T00:14:04.671Z,5.73
2018-04-07T00:14:08.668Z,5.73
2018-04-07T00:14:12.769Z,5.73
2018-04-07T00:14:16.864Z,5.74
2018-04-07T00:14:20.750Z,5.73
2018-04-07T00:14:24.847Z,5.74
2018-04-07T00:14:28.736Z,5.72
2018-04-07T00:14:32.847Z,5.74
2018-04-07T00:14:36.844Z,5.74
2018-04-07T00:14:40.952Z,5.74
2018-04-07T00:14:45.072Z,5.74
2018-04-07T00:14:49.293Z,5.74
2018-04-07T00:14:53.294Z,5.74
2018-04-07T00:14:57.181Z,5.74
2018-04-07T00:15:01.389Z,5.75
2018-04-07T00:15:05.493Z,5.74
2018-04-07T00:15:09.601Z,5.75
2018-04-07T00:15:13.702Z,5.74
2018-04-07T00:15:17.694Z,5.75
2018-04-07T00:15:21.793Z,5.75
2018-04-07T00:15:26.010Z,5.75
2018-04-07T00:15:30.148Z,5.75
2018-04-07T00:15:33.929Z,5.75
2018-04-07T00:15:38.135Z,5.75
2018-04-07T00:15:42.346Z,5.76
2018-04-07T00:15:46.451Z,5.75
2018-04-07T00:15:50.443Z,5.76
2018-04-07T00:15:54.541Z,5.76
2018-04-07T00:15:58.857Z,5.76
2018-04-07T00:16:02.898Z,5.76
2018-04-07T00:16:06.894Z,5.76
2018-04-07T00:16:10.995Z,5.77
2018-04-07T00:16:15.206Z,5.77
2018-04-07T00:16:19.317Z,5.76
2018-04-07T00:16:23.526Z,5.77
2018-04-07T00:16:27.897Z,5.77
2018-04-07T00:16:32.002Z,5.76
2018-04-07T00:16:36.111Z,5.76
2018-04-07T00:16:40.321Z,5.76
2018-04-07T00:16:44.314Z,5.77
2018-04-07T00:16:48.092Z,5.76
2018-04-07T00:16:51.870Z,5.77
2018-04-07T00:16:55.977Z,5.77
2018-04-07T00:17:00.086Z,5.77
2018-04-07T00:17:04.398Z,5.77
2018-04-07T00:17:08.501Z,5.77
2018-04-07T00:17:12.713Z,5.78
2018-04-07T00:17:16.706Z,5.78
2018-04-07T00:17:20.699Z,5.77
2018-04-07T00:17:24.800Z,5.78
2018-04-07T00:17:28.794Z,5.78
2018-04-07T00:17:32.900Z,5.77
2018-04-07T00:17:37.007Z,5.77
2018-04-07T00:17:41.011Z,5.78
2018-04-07T00:17:45.114Z,5.78
2018-04-07T00:17:49.117Z,5.78
2018-04-07T00:17:53.115Z,5.78
2018-04-07T00:17:57.217Z,5.78
2018-04-07T00:18:01.213Z,5.78
2018-04-07T00:18:05.210Z,5.79
2018-04-07T00:18:09.530Z,5.79
2018-04-07T00:18:13.522Z,5.78
2018-04-07T00:18:17.412Z,5.78
2018-04-07T00:18:21.519Z,5.78
2018-04-07T00:18:25.621Z,5.79
2018-04-07T00:18:29.724Z,5.78
2018-04-07T00:18:33.724Z,5.79
2018-04-07T00:18:37.929Z,5.79
2018-04-07T00:18:42.250Z,5.8
2018-04-07T00:18:46.351Z,5.78
2018-04-07T00:18:50.664Z,5.79
2018-04-07T00:18:54.443Z,5.79
2018-04-07T00:18:58.436Z,5.8
2018-04-07T00:19:02.540Z,5.79
2018-04-07T00:19:06.645Z,5.8
2018-04-07T00:19:10.757Z,5.79
2018-04-07T00:19:14.530Z,5.8
2018-04-07T00:19:18.745Z,5.81
2018-04-07T00:19:22.954Z,5.8
2018-04-07T00:19:27.161Z,5.81
2018-04-07T00:19:31.154Z,5.81
2018-04-07T00:19:35.252Z,5.8
2018-04-07T00:19:39.463Z,5.8
2018-04-07T00:19:43.675Z,5.8
2018-04-07T00:19:47.667Z,5.8
2018-04-07T00:19:51.894Z,5.8
2018-04-07T00:19:55.784Z,5.81
2018-04-07T00:19:59.889Z,5.81
2018-04-07T00:20:04.448Z,5.81
2018-04-07T00:20:08.440Z,5.8
2018-04-07T00:20:12.435Z,5.81
2018-04-07T00:20:16.556Z,5.81
2018-04-07T00:20:20.551Z,5.82
2018-04-07T00:20:24.544Z,5.81
2018-04-07T00:20:28.754Z,5.82
2018-04-07T00:20:32.860Z,5.81
2018-04-07T00:20:36.899Z,5.81
2018-04-07T00:20:40.891Z,5.82
2018-04-07T00:20:45.207Z,5.82
2018-04-07T00:20:49.305Z,5.82
2018-04-07T00:20:53.618Z,5.82
2018-04-07T00:20:57.945Z,5.81
2018-04-07T00:21:02.055Z,5.81
2018-04-07T00:21:06.051Z,5.81
2018-04-07T00:21:10.156Z,5.82
2018-04-07T00:21:14.475Z,5.81
2018-04-07T00:21:18.690Z,5.82
2018-04-07T00:21:22.789Z,5.82
2018-04-07T00:21:26.785Z,5.82
2018-04-07T00:21:30.788Z,5.82
2018-04-07T00:21:35.114Z,5.82
2018-04-07T00:21:39.223Z,5.83
2018-04-07T00:21:43.218Z,5.81
2018-04-07T00:21:47.324Z,5.82
2018-04-07T00:21:51.429Z,5.82
2018-04-07T00:21:55.539Z,5.82
2018-04-07T00:21:59.531Z,5.82
2018-04-07T00:22:03.577Z,5.82
2018-04-07T00:22:07.680Z,5.82
2018-04-07T00:22:11.895Z,5.82
2018-04-07T00:22:16.109Z,5.83
2018-04-07T00:22:20.110Z,5.82
2018-04-07T00:22:24.208Z,5.82
2018-04-07T00:22:28.417Z,5.82
2018-04-07T00:22:32.629Z,5.83
2018-04-07T00:22:36.839Z,5.82
2018-04-07T00:22:41.158Z,5.82
2018-04-07T00:22:45.370Z,5.82
2018-04-07T00:22:49.473Z,5.82
2018-04-07T00:22:53.678Z,5.82
2018-04-07T00:22:57.668Z,5.81
2018-04-07T00:23:01.886Z,5.82
2018-04-07T00:23:05.879Z,5.82
2018-04-07T00:23:09.869Z,5.82
2018-04-07T00:23:13.869Z,5.82
2018-04-07T00:23:17.858Z,5.81
2018-04-07T00:23:22.062Z,5.82
2018-04-07T00:23:26.376Z,5.81
2018-04-07T00:23:30.158Z,5.81
2018-04-07T00:23:34.268Z,5.81
2018-04-07T00:23:38.371Z,5.81
2018-04-07T00:23:42.584Z,5.81
2018-04-07T00:23:46.900Z,5.81
2018-04-07T00:23:50.893Z,5.81
2018-04-07T00:23:54.785Z,5.79
2018-04-07T00:23:58.888Z,5.8
2018-04-07T00:24:03.084Z,5.8
2018-04-07T00:24:07.298Z,5.8
2018-04-07T00:24:11.396Z,5.81
2018-04-07T00:24:15.386Z,5.8
2018-04-07T00:24:19.487Z,5.79
2018-04-07T00:24:23.493Z,5.79
2018-04-07T00:24:27.513Z,5.79
2018-04-07T00:24:31.611Z,5.79
2018-04-07T00:24:35.393Z,5.8
2018-04-07T00:24:39.382Z,5.8
2018-04-07T00:24:43.506Z,5.78
2018-04-07T00:24:47.728Z,5.78
2018-04-07T00:24:51.725Z,5.78
2018-04-07T00:24:55.829Z,5.78
2018-04-07T00:24:59.722Z,5.78
2018-04-07T00:25:03.834Z,5.78
2018-04-07T00:25:08.043Z,5.78
2018-04-07T00:25:12.141Z,5.78
2018-04-07T00:25:16.277Z,5.78
2018-04-07T00:25:20.170Z,5.78
2018-04-07T00:25:24.381Z,5.77
2018-04-07T00:25:28.374Z,5.77
2018-04-07T00:25:32.366Z,5.77
2018-04-07T00:25:36.579Z,5.77
2018-04-07T00:25:40.897Z,5.77
2018-04-07T00:25:44.784Z,5.77
2018-04-07T00:25:48.780Z,5.76
2018-04-07T00:25:52.778Z,5.76
2018-04-07T00:25:56.781Z,5.76
2018-04-07T00:26:00.883Z,5.75
2018-04-07T00:26:05.186Z,5.76
2018-04-07T00:26:09.181Z,5.75
2018-04-07T00:26:13.174Z,5.76
2018-04-07T00:26:17.275Z,5.75
2018-04-07T00:26:21.385Z,5.76
2018-04-07T00:26:25.483Z,5.75
2018-04-07T00:26:29.486Z,5.75
2018-04-07T00:26:33.803Z,5.75
2018-04-07T00:26:37.909Z,5.75
2018-04-07T00:26:41.902Z,5.75
2018-04-07T00:26:46.003Z,5.75
2018-04-07T00:26:50.210Z,5.75
2018-04-07T00:26:54.321Z,5.75
2018-04-07T00:26:58.316Z,5.74
2018-04-07T00:27:02.459Z,5.74
2018-04-07T00:27:06.559Z,5.74
2018-04-07T00:27:10.555Z,5.73
2018-04-07T00:27:14.658Z,5.74
2018-04-07T00:27:18.970Z,5.74
2018-04-07T00:27:23.075Z,5.73
2018-04-07T00:27:27.189Z,5.74
2018-04-07T00:27:31.512Z,5.73
2018-04-07T00:27:35.397Z,5.73
2018-04-07T00:27:39.503Z,5.72
2018-04-07T00:27:43.492Z,5.73
2018-04-07T00:27:47.497Z,5.72
2018-04-07T00:27:51.817Z,5.72
2018-04-07T00:27:55.932Z,5.71
2018-04-07T00:28:00.153Z,5.71
2018-04-07T00:28:04.359Z,5.71
2018-04-07T00:28:08.356Z,5.71
2018-04-07T00:28:12.350Z,5.7
2018-04-07T00:28:16.553Z,5.71
2018-04-07T00:28:20.869Z,5.71
2018-04-07T00:28:24.971Z,5.7
2018-04-07T00:28:29.069Z,5.71
2018-04-07T00:28:33.391Z,5.71
2018-04-07T00:28:37.274Z,5.7
2018-04-07T00:28:41.168Z,5.7
2018-04-07T00:28:45.054Z,5.69
2018-04-07T00:28:48.971Z,5.7
2018-04-07T00:28:53.177Z,5.68
2018-04-07T00:28:57.410Z,5.69
2018-04-07T00:29:01.824Z,5.69
2018-04-07T00:29:05.827Z,5.69
2018-04-07T00:29:09.821Z,5.68
2018-04-07T00:29:13.704Z,5.68
2018-04-07T00:29:17.823Z,5.68
2018-04-07T00:29:22.144Z,5.68
2018-04-07T00:29:26.032Z,5.68
2018-04-07T00:29:29.915Z,5.67
2018-04-07T00:29:34.012Z,5.67
2018-04-07T00:29:38.115Z,5.67
2018-04-07T00:29:42.001Z,5.67
2018-04-07T00:29:46.101Z,5.66
2018-04-07T00:29:50.202Z,5.68
2018-04-07T00:29:54.305Z,5.66
2018-04-07T00:29:58.524Z,5.67
2018-04-07T00:30:02.516Z,5.67
2018-04-07T00:30:06.631Z,5.66
2018-04-07T00:30:10.840Z,5.66
2018-04-07T00:30:14.947Z,5.66
2018-04-07T00:30:19.046Z,5.66
2018-04-07T00:30:23.257Z,5.67
2018-04-07T00:30:27.357Z,5.66
2018-04-07T00:30:31.239Z,5.66
2018-04-07T00:30:35.228Z,5.65
2018-04-07T00:30:39.110Z,5.65
2018-04-07T00:30:43.106Z,5.65
2018-04-07T00:30:47.217Z,5.65
2018-04-07T00:30:51.542Z,5.64
2018-04-07T00:30:55.644Z,5.64
2018-04-07T00:30:59.851Z,5.65
2018-04-07T00:31:03.953Z,5.64
2018-04-07T00:31:08.054Z,5.64
2018-04-07T00:31:12.270Z,5.64
2018-04-07T00:31:16.274Z,5.65
2018-04-07T00:31:20.490Z,5.63
2018-04-07T00:31:24.717Z,5.64
2018-04-07T00:31:28.938Z,5.64
2018-04-07T00:31:33.145Z,5.63
2018-04-07T00:31:37.248Z,5.64
2018-04-07T00:31:41.237Z,5.64
2018-04-07T00:31:45.229Z,5.64
2018-04-07T00:31:49.442Z,5.64
2018-04-07T00:31:53.468Z,5.63
2018-04-07T00:31:57.467Z,5.62
2018-04-07T00:32:01.780Z,5.63
2018-04-07T00:32:05.886Z,5.63
2018-04-07T00:32:10.216Z,5.64
2018-04-07T00:32:14.315Z,5.63
2018-04-07T00:32:18.532Z,5.63
2018-04-07T00:32:22.758Z,5.64
2018-04-07T00:32:26.643Z,5.63
2018-04-07T00:32:30.745Z,5.63
2018-04-07T00:32:34.956Z,5.63
2018-04-07T00:32:38.837Z,5.62
2018-04-07T00:32:42.939Z,5.62
2018-04-07T00:32:47.147Z,5.63
2018-04-07T00:32:51.246Z,5.62
2018-04-07T00:32:55.235Z,5.62
2018-04-07T00:32:59.446Z,5.62
2018-04-07T00:33:03.662Z,5.62
2018-04-07T00:33:07.871Z,5.62
2018-04-07T00:33:12.183Z,5.61
2018-04-07T00:33:16.285Z,5.62
2018-04-07T00:33:20.499Z,5.61
2018-04-07T00:33:24.833Z,5.61
2018-04-07T00:33:28.827Z,5.62
2018-04-07T00:33:33.037Z,5.62
2018-04-07T00:33:37.261Z,5.61
2018-04-07T00:33:41.581Z,5.61
2018-04-07T00:33:45.465Z,5.61
2018-04-07T00:33:49.568Z,5.6
2018-04-07T00:33:53.571Z,5.6
2018-04-07T00:33:57.564Z,5.61
2018-04-07T00:34:01.814Z,5.6
2018-04-07T00:34:05.816Z,5.6
2018-04-07T00:34:09.717Z,5.6
2018-04-07T00:34:13.818Z,5.59
2018-04-07T00:34:17.924Z,5.59
2018-04-07T00:34:22.133Z,5.59
2018-04-07T00:34:26.128Z,5.59
2018-04-07T00:34:30.452Z,5.59
2018-04-07T00:34:34.551Z,5.58
2018-04-07T00:34:38.869Z,5.59
2018-04-07T00:34:42.972Z,5.59
2018-04-07T00:34:46.862Z,5.58
2018-04-07T00:34:50.970Z,5.58
2018-04-07T00:34:55.080Z,5.57
2018-04-07T00:34:59.079Z,5.58
2018-04-07T00:35:03.074Z,5.57
2018-04-07T00:35:07.074Z,5.57
2018-04-07T00:35:11.287Z,5.57
2018-04-07T00:35:15.492Z,5.57
2018-04-07T00:35:19.707Z,5.57
2018-04-07T00:35:23.911Z,5.57
2018-04-07T00:35:28.124Z,5.56
2018-04-07T00:35:32.234Z,5.56
2018-04-07T00:35:36.550Z,5.57
2018-04-07T00:35:40.646Z,5.56
2018-04-07T00:35:44.744Z,5.56
2018-04-07T00:35:48.950Z,5.56
2018-04-07T00:35:53.158Z,5.56
2018-04-07T00:35:57.259Z,5.55
2018-04-07T00:36:01.360Z,5.56
2018-04-07T00:36:05.246Z,5.55
2018-04-07T00:36:09.242Z,5.56
2018-04-07T00:36:13.235Z,5.56
2018-04-07T00:36:17.451Z,5.55
2018-04-07T00:36:21.661Z,5.55
2018-04-07T00:36:25.652Z,5.55
2018-04-07T00:36:29.648Z,5.55
2018-04-07T00:36:33.431Z,5.55
2018-04-07T00:36:37.641Z,5.55
2018-04-07T00:36:41.852Z,5.55
2018-04-07T00:36:46.164Z,5.55
2018-04-07T00:36:50.266Z,5.55
2018-04-07T00:36:54.148Z,5.55
2018-04-07T00:36:58.142Z,5.55
2018-04-07T00:37:02.449Z,5.55
2018-04-07T00:37:06.671Z,5.55
2018-04-07T00:37:10.874Z,5.55
2018-04-07T00:37:14.970Z,5.54
2018-04-07T00:37:18.962Z,5.54
2018-04-07T00:37:22.952Z,5.54
2018-04-07T00:37:26.945Z,5.54
2018-04-07T00:37:30.830Z,5.53
2018-04-07T00:37:35.042Z,5.55
2018-04-07T00:37:39.249Z,5.54
2018-04-07T00:37:43.602Z,5.54
2018-04-07T00:37:47.599Z,5.53
2018-04-07T00:37:51.704Z,5.54
2018-04-07T00:37:55.914Z,5.53
2018-04-07T00:38:00.133Z,5.53
2018-04-07T00:38:04.485Z,5.53
2018-04-07T00:38:08.694Z,5.53
2018-04-07T00:38:12.905Z,5.53
2018-04-07T00:38:17.004Z,5.52
2018-04-07T00:38:21.320Z,5.52
2018-04-07T00:38:25.636Z,5.51
2018-04-07T00:38:29.644Z,5.51
2018-04-07T00:38:33.639Z,5.52
2018-04-07T00:38:37.954Z,5.51
2018-04-07T00:38:42.078Z,5.51
2018-04-07T00:38:46.084Z,5.51
2018-04-07T00:38:50.293Z,5.52
2018-04-07T00:38:54.499Z,5.52
2018-04-07T00:38:58.821Z,5.51
2018-04-07T00:39:02.760Z,5.52
2018-04-07T00:39:06.644Z,5.51
2018-04-07T00:39:10.642Z,5.51
2018-04-07T00:39:14.739Z,5.51
2018-04-07T00:39:18.733Z,5.51
2018-04-07T00:39:22.720Z,5.5
2018-04-07T00:39:26.600Z,5.51
2018-04-07T00:39:30.590Z,5.51
2018-04-07T00:39:34.689Z,5.5
2018-04-07T00:39:38.791Z,5.51
2018-04-07T00:39:43.114Z,5.5
2018-04-07T00:39:47.322Z,5.5
2018-04-07T00:39:51.638Z,5.5
2018-04-07T00:39:55.739Z,5.5
2018-04-07T00:39:59.630Z,5.5
2018-04-07T00:40:03.724Z,5.5
2018-04-07T00:40:07.828Z,5.51
2018-04-07T00:40:11.719Z,5.5
2018-04-07T00:40:15.713Z,5.5
2018-04-07T00:40:19.920Z,5.51
2018-04-07T00:40:24.240Z,5.49
2018-04-07T00:40:28.123Z,5.5
2018-04-07T00:40:32.011Z,5.51
2018-04-07T00:40:36.215Z,5.51
2018-04-07T00:40:40.419Z,5.51
2018-04-07T00:40:44.524Z,5.51
2018-04-07T00:40:48.727Z,5.51
2018-04-07T00:40:52.932Z,5.52
2018-04-07T00:40:57.249Z,5.52
2018-04-07T00:41:01.474Z,5.51
2018-04-07T00:41:05.495Z,5.52
2018-04-07T00:41:09.383Z,5.53
2018-04-07T00:41:13.705Z,5.52
2018-04-07T00:41:17.704Z,5.52
2018-04-07T00:41:21.929Z,5.52
2018-04-07T00:41:26.033Z,5.54
2018-04-07T00:41:30.250Z,5.53
2018-04-07T00:41:34.456Z,5.53
2018-04-07T00:41:38.562Z,5.54
2018-04-07T00:41:42.551Z,5.54
2018-04-07T00:41:46.657Z,5.54
2018-04-07T00:41:50.764Z,5.55
2018-04-07T00:41:54.762Z,5.55
2018-04-07T00:41:59.077Z,5.55
2018-04-07T00:42:03.323Z,5.55
2018-04-07T00:42:07.319Z,5.56
2018-04-07T00:42:11.320Z,5.56
2018-04-07T00:42:15.528Z,5.56
2018-04-07T00:42:19.744Z,5.57
2018-04-07T00:42:23.736Z,5.56
2018-04-07T00:42:27.946Z,5.58
2018-04-07T00:42:32.049Z,5.57
2018-04-07T00:42:36.149Z,5.57
2018-04-07T00:42:40.032Z,5.58
2018-04-07T00:42:44.242Z,5.58
2018-04-07T00:42:48.343Z,5.59
2018-04-07T00:42:52.448Z,5.59
2018-04-07T00:42:56.657Z,5.59
2018-04-07T00:43:00.766Z,5.59
2018-04-07T00:43:04.857Z,5.59
2018-04-07T00:43:08.634Z,5.6
2018-04-07T00:43:12.842Z,5.6
2018-04-07T00:43:17.058Z,5.6
2018-04-07T00:43:21.426Z,5.6
2018-04-07T00:43:25.414Z,5.61
2018-04-07T00:43:29.631Z,5.62
2018-04-07T00:43:33.631Z,5.62
2018-04-07T00:43:37.729Z,5.62
2018-04-07T00:43:42.047Z,5.63
2018-04-07T00:43:46.253Z,5.63
2018-04-07T00:43:50.248Z,5.64
2018-04-07T00:43:54.026Z,5.64
2018-04-07T00:43:58.231Z,5.63
2018-04-07T00:44:02.379Z,5.63
2018-04-07T00:44:06.591Z,5.64
2018-04-07T00:44:10.582Z,5.64
2018-04-07T00:44:14.574Z,5.65
2018-04-07T00:44:18.783Z,5.65
2018-04-07T00:44:22.884Z,5.65
2018-04-07T00:44:27.002Z,5.65
2018-04-07T00:44:30.992Z,5.66
2018-04-07T00:44:35.101Z,5.67
2018-04-07T00:44:38.888Z,5.66
2018-04-07T00:44:43.100Z,5.66
2018-04-07T00:44:47.090Z,5.68
2018-04-07T00:44:51.190Z,5.66
2018-04-07T00:44:55.310Z,5.67
2018-04-07T00:44:59.409Z,5.68
2018-04-07T00:45:03.761Z,5.68
2018-04-07T00:45:08.079Z,5.68
2018-04-07T00:45:12.285Z,5.68
2018-04-07T00:45:16.512Z,5.69
2018-04-07T00:45:20.721Z,5.69
2018-04-07T00:45:25.045Z,5.69
2018-04-07T00:45:29.037Z,5.69
2018-04-07T00:45:33.071Z,5.69
2018-04-07T00:45:37.061Z,5.69
2018-04-07T00:45:41.267Z,5.7
2018-04-07T00:45:45.373Z,5.69
2018-04-07T00:45:49.687Z,5.7
2018-04-07T00:45:53.890Z,5.71
2018-04-07T00:45:57.778Z,5.7
2018-04-07T00:46:01.772Z,5.71
2018-04-07T00:46:05.979Z,5.71
2018-04-07T00:46:10.080Z,5.72
2018-04-07T00:46:14.290Z,5.71
2018-04-07T00:46:18.328Z,5.71
2018-04-07T00:46:22.325Z,5.72
2018-04-07T00:46:26.208Z,5.72
2018-04-07T00:46:30.421Z,5.71
2018-04-07T00:46:34.734Z,5.72
2018-04-07T00:46:38.946Z,5.72
2018-04-07T00:46:43.052Z,5.73
2018-04-07T00:46:47.305Z,5.73
2018-04-07T00:46:51.411Z,5.72
2018-04-07T00:46:55.623Z,5.72
2018-04-07T00:46:59.834Z,5.73
2018-04-07T00:47:03.825Z,5.73
2018-04-07T00:47:07.925Z,5.73
2018-04-07T00:47:11.920Z,5.73
2018-04-07T00:47:16.019Z,5.73
2018-04-07T00:47:20.226Z,5.73
2018-04-07T00:47:24.330Z,5.73
2018-04-07T00:47:28.430Z,5.73
2018-04-07T00:47:32.319Z,5.73
2018-04-07T00:47:36.524Z,5.74
2018-04-07T00:47:40.624Z,5.74
2018-04-07T00:47:44.510Z,5.73
2018-04-07T00:47:48.613Z,5.73
2018-04-07T00:47:52.818Z,5.72
2018-04-07T00:47:56.919Z,5.73
2018-04-07T00:48:00.914Z,5.73
2018-04-07T00:48:05.330Z,5.73
2018-04-07T00:48:09.427Z,5.72
2018-04-07T00:48:13.542Z,5.72
2018-04-07T00:48:17.748Z,5.72
2018-04-07T00:48:22.068Z,5.73
2018-04-07T00:48:26.285Z,5.72
2018-04-07T00:48:30.113Z,5.71
2018-04-07T00:48:33.998Z,5.72
2018-04-07T00:48:38.100Z,5.72
2018-04-07T00:48:42.304Z,5.71
2018-04-07T00:48:46.403Z,5.72
2018-04-07T00:48:50.605Z,5.71
2018-04-07T00:48:54.601Z,5.72
2018-04-07T00:48:58.708Z,5.72
2018-04-07T00:49:02.811Z,5.72
2018-04-07T00:49:07.136Z,5.72
2018-04-07T00:49:11.347Z,5.71
2018-04-07T00:49:15.455Z,5.71
2018-04-07T00:49:19.655Z,5.72
2018-04-07T00:49:23.769Z,5.7
2018-04-07T00:49:27.656Z,5.71
2018-04-07T00:49:31.652Z,5.71
2018-04-07T00:49:35.962Z,5.7
2018-04-07T00:49:40.329Z,5.72
2018-04-07T00:49:44.327Z,5.71
2018-04-07T00:49:48.546Z,5.7
2018-04-07T00:49:52.752Z,5.7
2018-04-07T00:49:56.965Z,5.7
2018-04-07T00:50:01.062Z,5.71
2018-04-07T00:50:05.209Z,5.7
2018-04-07T00:50:09.203Z,5.7
2018-04-07T00:50:13.417Z,5.7
2018-04-07T00:50:17.412Z,5.69
2018-04-07T00:50:21.412Z,5.7
2018-04-07T00:50:25.328Z,5.7
2018-04-07T00:50:29.547Z,5.69
2018-04-07T00:50:33.647Z,5.69
2018-04-07T00:50:37.752Z,5.69
2018-04-07T00:50:41.848Z,5.7
2018-04-07T00:50:45.848Z,5.69
2018-04-07T00:50:49.954Z,5.69
2018-04-07T00:50:53.840Z,5.69
2018-04-07T00:50:57.727Z,5.69
2018-04-07T00:51:01.875Z,5.68
2018-04-07T00:51:05.762Z,5.69
2018-04-07T00:51:09.907Z,5.69
2018-04-07T00:51:14.011Z,5.68
2018-04-07T00:51:18.111Z,5.68
2018-04-07T00:51:22.322Z,5.68
2018-04-07T00:51:26.421Z,5.67
2018-04-07T00:51:30.633Z,5.67
2018-04-07T00:51:34.748Z,5.67
2018-04-07T00:51:38.850Z,5.68
2018-04-07T00:51:42.846Z,5.67
2018-04-07T00:51:47.057Z,5.68
2018-04-07T00:51:51.048Z,5.68
2018-04-07T00:51:55.042Z,5.66
2018-04-07T00:51:59.145Z,5.66
2018-04-07T00:52:03.765Z,5.66
2018-04-07T00:52:07.759Z,5.66
2018-04-07T00:52:11.752Z,5.67
2018-04-07T00:52:15.854Z,5.66
2018-04-07T00:52:19.968Z,5.66
2018-04-07T00:52:24.074Z,5.66
2018-04-07T00:52:28.172Z,5.65
2018-04-07T00:52:32.383Z,5.65
2018-04-07T00:52:36.721Z,5.66
2018-04-07T00:52:40.721Z,5.65
2018-04-07T00:52:44.937Z,5.65
2018-04-07T00:52:48.824Z,5.65
2018-04-07T00:52:53.034Z,5.66
2018-04-07T00:52:57.133Z,5.64
2018-04-07T00:53:01.249Z,5.64
2018-04-07T00:53:05.289Z,5.64
2018-04-07T00:53:09.071Z,5.64
2018-04-07T00:53:13.386Z,5.64
2018-04-07T00:53:17.276Z,5.64
2018-04-07T00:53:21.388Z,5.64
2018-04-07T00:53:25.385Z,5.64
2018-04-07T00:53:29.485Z,5.64
2018-04-07T00:53:33.597Z,5.64
2018-04-07T00:53:37.804Z,5.64
2018-04-07T00:53:41.908Z,5.64
2018-04-07T00:53:45.900Z,5.64
2018-04-07T00:53:50.124Z,5.64
2018-04-07T00:53:54.020Z,5.64
2018-04-07T00:53:58.334Z,5.63
2018-04-07T00:54:02.364Z,5.63
2018-04-07T00:54:06.571Z,5.63
2018-04-07T00:54:10.680Z,5.62
2018-04-07T00:54:14.678Z,5.62
2018-04-07T00:54:18.790Z,5.62
2018-04-07T00:54:23.104Z,5.63
2018-04-07T00:54:27.208Z,5.62
2018-04-07T00:54:31.312Z,5.61
2018-04-07T00:54:35.412Z,5.62
2018-04-07T00:54:39.730Z,5.61
2018-04-07T00:54:43.934Z,5.61
2018-04-07T00:54:47.931Z,5.62
2018-04-07T00:54:52.140Z,5.6